マレ の空港の天気 - METARとTAF

マレ国際空港 ( VRMM / MLE ) - モルディブ Hulhule Island, North Male Atoll
飛行場実況気象(Metar)
観測時間02/18 02:00 MVT (02/17 21:00 UTC)
風向・風速北 3m/s
視程7000m
天気現象
少しの雲 雲底高度 550m
気温28℃
湿度84%
気圧1011hPa
METARVRMM 172100Z 01005KT 7000 FEW018 28/25 Q1011 NOSIG
過去の天気等 Google飛行場航空写真 Wunderground天気予報

過去48時間のMETAR

飛行場予報(TAF)
発表時間: 2/17 22:00 MVT (2/17 17:00 UTC)
予報対象時間: 17日23時 MVT ~ 19日5時 MVT
風向・風速北北東 5m/s
視程9000m
少しの雲 雲底高度 550m
17日23時 MVT ~ 18日5時 MVT に一時的に
少しの積乱雲 雲底高度 550m
TAF VRMM 171700Z 1718/1824 02009KT 9000 FEW018
TEMPO 1718/1724 FEW018CB